Time;durP1;ratioP1;P1;durP2;ratioP2;P2;SDS_P1;SDS_P2;PMS_P1;PMS_P2;Temp;Humidity;BMP_temperature;BMP_pressure;BME280_temperature;BME280_humidity;BME280_pressure;Samples;Min_cycle;Max_cycle;Signal;HPM_P1;HPM_P2
2022/05/12 00:00:06;;;;;;;26.60;2.95;;;;;;;23.55;43.25;98765.81;7314870;19;129756;-37
2022/05/12 00:02:32;;;;;;;19.83;2.10;;;;;;;23.50;43.06;98765.53;7313837;19;129589;-38
2022/05/12 00:04:57;;;;;;;35.92;3.28;;;;;;;23.46;43.54;98766.84;7314408;19;129512;-37
2022/05/12 00:07:23;;;;;;;42.70;3.87;;;;;;;23.47;43.65;98770.31;7314874;19;131774;-37
2022/05/12 00:09:48;;;;;;;22.73;2.47;;;;;;;23.47;43.36;98770.31;7315176;19;147176;-38
2022/05/12 00:12:13;;;;;;;33.42;3.03;;;;;;;23.48;43.71;98770.13;7313802;19;145986;-37
2022/05/12 00:14:39;;;;;;;11.07;1.73;;;;;;;23.51;43.73;98756.66;7312030;19;154183;-37
2022/05/12 00:17:05;;;;;;;18.70;2.07;;;;;;;23.52;43.06;98762.75;7314656;19;130706;-37
2022/05/12 00:19:30;;;;;;;29.25;2.97;;;;;;;23.44;43.44;98760.97;7315696;19;129827;-37
2022/05/12 00:21:56;;;;;;;32.33;3.03;;;;;;;23.50;43.39;98770.78;7313617;19;142042;-37
2022/05/12 00:24:22;;;;;;;17.67;1.97;;;;;;;23.52;43.02;98779.28;7314410;19;129287;-37
2022/05/12 00:26:47;;;;;;;16.13;1.75;;;;;;;23.50;43.28;98785.69;7314770;19;129460;-38
2022/05/12 00:29:13;;;;;;;33.08;3.53;;;;;;;23.42;43.75;98765.53;7313998;19;129568;-37
2022/05/12 00:31:41;;;;;;;30.77;3.15;;;;;;;23.54;42.81;98793.03;7312655;19;129075;-37
2022/05/12 00:34:08;;;;;;;20.52;2.20;;;;;;;23.57;43.18;98779.56;7313214;19;128760;-37
2022/05/12 00:36:35;;;;;;;29.45;2.83;;;;;;;23.51;43.11;98784.69;7312081;19;133037;-37
2022/05/12 00:39:00;;;;;;;;;;;;;;;23.47;43.37;98780.81;7316431;19;131018;-37
2022/05/12 00:41:25;;;;;;;32.87;3.30;;;;;;;23.54;43.66;98779.94;7313257;19;129710;-37
2022/05/12 00:43:55;;;;;;;27.90;2.70;;;;;;;23.51;42.92;98768.94;7310339;19;154138;-37
2022/05/12 00:46:23;;;;;;;16.80;1.73;;;;;;;23.53;43.86;98769.59;7312999;19;129317;-37
2022/05/12 00:48:50;;;;;;;20.75;2.20;;;;;;;23.53;43.02;98770.44;7314265;19;129626;-37
2022/05/12 00:51:24;;;;;;;;;;;;;;;23.56;42.71;98770.09;7311446;19;129438;-37
2022/05/12 00:53:54;;;;;;;31.77;2.97;;;;;;;23.54;42.84;98765.97;7313579;19;131306;-38
2022/05/12 00:56:22;;;;;;;5.90;0.75;;;;;;;23.50;43.20;98778.66;7312475;19;130640;-37
2022/05/12 00:58:52;;;;;;;33.40;2.95;;;;;;;23.40;43.22;98770.19;7313685;19;131990;-37
2022/05/12 01:01:18;;;;;;;15.30;1.60;;;;;;;23.51;43.19;98777.66;7311798;19;130937;-37
2022/05/12 01:03:46;;;;;;;23.15;2.50;;;;;;;23.54;43.22;98768.59;7311005;19;128949;-37
2022/05/12 01:06:13;;;;;;;20.92;2.20;;;;;;;23.52;43.13;98781.91;7306754;19;132092;-37
2022/05/12 01:08:39;;;;;;;16.38;1.83;;;;;;;23.52;43.51;98783.72;7313575;19;130595;-38
2022/05/12 01:11:09;;;;;;;24.50;2.53;;;;;;;23.51;42.89;98782.06;7311923;19;129592;-37
2022/05/12 01:13:34;;;;;;;33.00;3.25;;;;;;;23.54;43.34;98782.56;7313430;19;129244;-37
2022/05/12 01:16:02;;;;;;;39.80;3.90;;;;;;;23.53;43.67;98786.19;7309587;19;130425;-37
2022/05/12 01:18:30;;;;;;;19.48;2.22;;;;;;;23.55;42.84;98786.78;7312763;19;131440;-37
2022/05/12 01:20:56;;;;;;;33.97;3.50;;;;;;;23.54;42.95;98785.19;7311008;19;129233;-37
2022/05/12 01:23:25;;;;;;;21.47;2.17;;;;;;;23.53;42.93;98780.94;7311951;19;130962;-38
2022/05/12 01:25:58;;;;;;;40.05;3.70;;;;;;;23.56;42.98;98785.00;7304828;19;130094;-38
2022/05/12 01:28:24;;;;;;;30.67;2.75;;;;;;;23.61;42.75;98778.25;7313582;19;130358;-38
2022/05/12 01:30:49;;;;;;;24.52;2.53;;;;;;;23.56;43.19;98780.59;7309541;19;131037;-37
2022/05/12 01:33:15;;;;;;;30.60;2.70;;;;;;;23.56;42.83;98779.75;7313423;19;129114;-37
2022/05/12 01:35:40;;;;;;;37.15;3.50;;;;;;;23.54;43.35;98776.47;7308674;19;129724;-37
2022/05/12 01:38:05;;;;;;;29.07;2.80;;;;;;;23.51;43.34;98775.03;7310708;19;158495;-37
2022/05/12 01:40:31;;;;;;;46.67;4.40;;;;;;;23.52;43.50;98774.03;7311223;19;141871;-37
2022/05/12 01:42:56;;;;;;;20.17;2.08;;;;;;;23.56;43.59;98775.34;7311721;19;129520;-37
2022/05/12 01:45:22;;;;;;;36.87;3.97;;;;;;;23.52;43.21;98773.22;7310608;19;129543;-38
2022/05/12 01:47:47;;;;;;;20.43;2.10;;;;;;;23.53;42.82;98770.44;7311475;19;129273;-37
2022/05/12 01:50:14;;;;;;;23.27;2.53;;;;;;;23.60;43.28;98762.69;7312819;19;130584;-37
2022/05/12 01:52:43;;;;;;;54.80;4.75;;;;;;;23.55;43.07;98775.50;7311226;19;129600;-37
2022/05/12 01:55:10;;;;;;;27.23;3.00;;;;;;;23.54;43.23;98777.31;7308922;19;130155;-37
2022/05/12 01:57:35;;;;;;;26.75;2.55;;;;;;;23.60;43.39;98776.59;7310810;19;130540;-37
2022/05/12 02:00:00;;;;;;;29.77;3.17;;;;;;;23.58;42.63;98775.97;7312340;19;130541;-37
2022/05/12 02:02:28;;;;;;;32.50;3.00;;;;;;;23.54;43.49;98782.56;7309265;19;154376;-37
2022/05/12 02:04:53;;;;;;;30.77;3.08;;;;;;;23.61;42.97;98783.50;7309010;19;130334;-37
2022/05/12 02:07:18;;;;;;;21.38;1.98;;;;;;;23.62;43.13;98786.97;7311298;19;129922;-37
2022/05/12 02:09:44;;;;;;;33.35;3.03;;;;;;;23.60;43.38;98776.59;7311542;19;128861;-37
2022/05/12 02:12:09;;;;;;;26.93;2.80;;;;;;;23.56;42.78;98780.59;7309738;19;129717;-37
2022/05/12 02:14:36;;;;;;;16.80;2.15;;;;;;;23.53;43.24;98791.44;7309687;19;130943;-38
2022/05/12 02:17:02;;;;;;;29.23;2.83;;;;;;;23.60;43.48;98794.97;7310792;19;129709;-37
2022/05/12 02:19:27;;;;;;;33.70;3.00;;;;;;;23.54;42.87;98790.41;7311227;19;128918;-37
2022/05/12 02:21:54;;;;;;;30.05;2.72;;;;;;;23.51;43.21;98788.16;7311428;19;129324;-37
2022/05/12 02:24:20;;;;;;;23.85;2.42;;;;;;;23.56;43.09;98792.88;7307722;19;130259;-37
2022/05/12 02:26:45;;;;;;;18.73;1.85;;;;;;;23.50;43.53;98786.53;7310543;19;130932;-37
2022/05/12 02:29:11;;;;;;;25.63;2.65;;;;;;;23.61;42.99;98799.25;7310637;19;130357;-37
2022/05/12 02:31:36;;;;;;;17.02;1.85;;;;;;;23.58;43.08;98801.41;7310898;19;129064;-37
2022/05/12 02:34:01;;;;;;;36.78;3.55;;;;;;;23.49;43.09;98787.50;7308482;19;158989;-37
2022/05/12 02:36:26;;;;;;;31.87;3.20;;;;;;;23.63;43.12;98799.06;7310269;19;130445;-37
2022/05/12 02:38:52;;;;;;;26.97;2.73;;;;;;;23.63;43.04;98802.53;7309264;19;155086;-38
2022/05/12 02:41:17;;;;;;;19.60;1.95;;;;;;;23.57;43.02;98803.19;7309284;19;154138;-38
2022/05/12 02:43:42;;;;;;;20.98;2.20;;;;;;;23.61;42.60;98804.50;7307230;19;158575;-38
2022/05/12 02:46:10;;;;;;;11.47;1.40;;;;;;;23.55;42.83;98805.16;7307643;19;130527;-38
2022/05/12 02:48:46;;;;;;;24.48;2.60;;;;;;;23.59;43.00;98811.72;7310339;19;128800;-38
2022/05/12 02:51:13;;;;;;;7.43;1.13;;;;;;;23.60;43.28;98817.78;7309349;19;128852;-38
2022/05/12 02:53:39;;;;;;;10.98;1.42;;;;;;;23.57;42.93;98826.81;7311025;19;131580;-40
2022/05/12 02:56:06;;;;;;;37.80;3.40;;;;;;;23.62;43.24;98819.25;7306958;19;129395;-40
2022/05/12 02:58:33;;;;;;;38.17;3.53;;;;;;;23.61;42.96;98830.75;7308800;19;129692;-41
2022/05/12 03:00:58;;;;;;;;;;;;;;;23.54;43.26;98834.19;7310637;19;129247;-38
2022/05/12 03:03:24;;;;;;;30.75;3.03;;;;;;;23.54;43.28;98829.78;7308045;19;129685;-38
2022/05/12 03:05:51;;;;;;;16.40;1.83;;;;;;;23.60;43.08;98844.03;7307025;19;130117;-40
2022/05/12 03:08:17;;;;;;;33.92;3.25;;;;;;;23.60;43.27;98844.84;7309505;19;129093;-40
2022/05/12 03:10:42;;;;;;;32.00;2.90;;;;;;;23.61;43.71;98851.72;7309032;19;129936;-41
2022/05/12 03:13:07;;;;;;;34.67;3.23;;;;;;;23.63;43.26;98841.91;7307876;19;158410;-37
2022/05/12 03:15:32;;;;;;;15.98;1.88;;;;;;;23.56;42.88;98848.81;7305324;19;158601;-39
2022/05/12 03:17:59;;;;;;;26.10;2.45;;;;;;;23.64;43.20;98861.06;7314212;19;154449;-38
2022/05/12 03:20:26;;;;;;;41.80;3.70;;;;;;;23.64;42.53;98859.25;7317512;19;129712;-40
2022/05/12 03:22:51;;;;;;;19.42;1.88;;;;;;;23.66;42.79;98859.09;7317570;19;130929;-41
2022/05/12 03:25:18;;;;;;;18.27;2.25;;;;;;;23.66;42.76;98866.97;7313855;19;150517;-38
2022/05/12 03:27:44;;;;;;;20.70;2.15;;;;;;;23.67;43.41;98869.41;7316744;19;130291;-41
2022/05/12 03:30:13;;;;;;;48.20;4.83;;;;;;;23.64;42.56;98869.75;7315306;19;129090;-40
2022/05/12 03:32:38;;;;;;;35.00;3.20;;;;;;;23.65;42.42;98874.00;7317110;19;130720;-40
2022/05/12 03:35:04;;;;;;;27.13;2.85;;;;;;;23.64;43.09;98877.63;7313117;19;159292;-40
2022/05/12 03:37:30;;;;;;;17.53;1.83;;;;;;;23.60;42.54;98881.56;7316381;19;129510;-40
2022/05/12 03:39:55;;;;;;;28.93;3.03;;;;;;;23.66;42.87;98886.16;7314665;19;130254;-40
2022/05/12 03:42:21;;;;;;;17.90;1.75;;;;;;;23.65;42.69;98892.38;7313784;19;158416;-41
2022/05/12 03:44:46;;;;;;;47.90;4.20;;;;;;;23.67;42.52;98897.47;7314842;19;130911;-40
2022/05/12 03:47:12;;;;;;;17.17;1.98;;;;;;;23.67;42.44;98890.41;7311531;19;133078;-38
2022/05/12 03:49:38;;;;;;;9.30;1.27;;;;;;;23.62;42.95;98884.06;7316662;19;129839;-38
2022/05/12 03:52:04;;;;;;;27.88;2.90;;;;;;;23.63;42.86;98891.75;7314171;19;129934;-38
2022/05/12 03:54:29;;;;;;;40.57;3.60;;;;;;;23.67;43.30;98893.03;7312815;19;130316;-37
2022/05/12 03:56:54;;;;;;;32.73;3.50;;;;;;;23.65;42.80;98897.63;7310769;19;155444;-37
2022/05/12 03:59:19;;;;;;;21.00;2.08;;;;;;;23.62;42.66;98892.72;7314460;19;129460;-41
2022/05/12 04:01:45;;;;;;;5.88;1.13;;;;;;;23.66;43.00;98888.78;7311913;19;158677;-41
2022/05/12 04:04:10;;;;;;;27.97;2.47;;;;;;;23.67;42.96;98893.03;7309549;19;129845;-40
2022/05/12 04:06:36;;;;;;;26.30;2.63;;;;;;;23.68;42.44;98899.09;7312387;19;138701;-41
2022/05/12 04:09:01;;;;;;;30.67;3.30;;;;;;;23.64;42.71;98901.25;7315024;19;129261;-39
2022/05/12 04:11:26;;;;;;;34.20;3.40;;;;;;;23.62;43.23;98911.09;7311305;19;130012;-40
2022/05/12 04:13:52;;;;;;;26.40;2.70;;;;;;;23.64;42.92;98924.88;7312927;19;158636;-39
2022/05/12 04:16:18;;;;;;;35.90;3.05;;;;;;;23.63;42.80;98928.50;7312745;19;129166;-41
2022/05/12 04:18:46;;;;;;;20.95;1.88;;;;;;;23.68;42.59;98926.19;7310912;19;130134;-38
2022/05/12 04:21:12;;;;;;;20.17;2.15;;;;;;;23.55;42.38;98907.50;7312091;19;158563;-39
2022/05/12 04:23:38;;;;;;;21.05;2.00;;;;;;;23.63;43.13;98928.50;7310592;19;159485;-37
2022/05/12 04:26:03;;;;;;;44.87;4.07;;;;;;;23.64;42.51;98934.53;7311988;19;129095;-40
2022/05/12 04:28:29;;;;;;;38.47;3.22;;;;;;;23.71;42.73;98940.75;7310748;19;150086;-41
2022/05/12 04:30:54;;;;;;;38.42;3.40;;;;;;;23.70;42.37;98960.94;7313260;19;131050;-40
2022/05/12 04:36:04;;;;;;;27.58;2.88;;;;;;;23.71;42.66;99001.94;7310985;19;130015;-40
2022/05/12 04:38:29;;;;;;;40.17;3.47;;;;;;;23.66;43.08;99016.56;7312470;19;129103;-38
2022/05/12 04:40:54;;;;;;;32.47;3.33;;;;;;;23.67;42.69;99021.63;7307095;19;159209;-40
2022/05/12 04:43:19;;;;;;;25.97;2.60;;;;;;;23.58;42.33;99020.03;7310769;19;129576;-38
2022/05/12 04:45:45;;;;;;;25.70;2.33;;;;;;;23.72;42.64;99037.69;7309437;19;129773;-39
2022/05/12 04:48:10;;;;;;;37.30;3.53;;;;;;;23.65;42.94;99033.28;7310116;19;154232;-40
2022/05/12 04:50:40;;;;;;;32.15;3.10;;;;;;;23.65;42.44;99038.53;7308137;19;159057;-37
2022/05/12 04:53:06;;;;;;;34.45;3.47;;;;;;;23.71;42.89;99051.81;7310932;19;131210;-39
2022/05/12 04:55:33;;;;;;;32.30;3.23;;;;;;;23.69;42.62;99052.97;7309360;19;142901;-40
2022/05/12 04:57:59;;;;;;;50.65;4.47;;;;;;;23.62;42.72;99050.19;7311244;19;130277;-38
2022/05/12 05:00:30;;;;;;;22.30;2.22;;;;;;;23.68;42.63;99082.81;7311741;19;130273;-39
2022/05/12 05:02:56;;;;;;;40.03;3.47;;;;;;;23.68;42.95;99083.66;7312021;19;131542;-37
2022/05/12 05:05:22;;;;;;;58.43;5.37;;;;;;;23.67;42.77;99095.13;7309535;19;129617;-39
2022/05/12 05:07:47;;;;;;;11.10;1.35;;;;;;;23.70;42.77;99101.88;7314517;19;129296;-40
2022/05/12 05:10:14;;;;;;;22.80;2.28;;;;;;;23.71;42.64;99111.38;7308927;19;130254;-39
2022/05/12 05:12:40;;;;;;;28.58;2.88;;;;;;;23.73;43.31;99114.66;7311631;19;129239;-38
2022/05/12 05:15:06;;;;;;;34.00;3.25;;;;;;;23.66;42.61;99117.13;7308743;19;128966;-39
2022/05/12 05:17:32;;;;;;;23.65;2.25;;;;;;;23.68;42.79;99124.81;7311912;19;129405;-39
2022/05/12 05:19:57;;;;;;;55.07;5.60;;;;;;;23.59;42.66;99110.03;7311077;19;129512;-39
2022/05/12 05:22:23;;;;;;;13.48;1.60;;;;;;;23.69;42.73;99126.44;7310502;19;149495;-37
2022/05/12 05:24:48;;;;;;;60.92;5.95;;;;;;;23.72;42.67;99126.94;7307034;19;129744;-37
2022/05/12 05:27:13;;;;;;;45.33;4.90;;;;;;;23.71;42.61;99141.06;7294977;19;132122;-38
2022/05/12 05:29:42;;;;;;;41.03;3.87;;;;;;;23.73;43.09;99138.28;7299159;19;158415;-38
2022/05/12 05:32:12;;;;;;;31.42;3.00;;;;;;;23.71;42.90;99156.81;7310671;19;130469;-39
2022/05/12 05:34:37;;;;;;;69.38;6.85;;;;;;;23.68;43.11;99162.41;7309680;19;129120;-39
2022/05/12 05:37:02;;;;;;;40.30;3.83;;;;;;;23.65;42.31;99165.31;7305261;19;153141;-38
2022/05/12 05:39:28;;;;;;;37.00;3.37;;;;;;;23.67;42.91;99178.31;7309870;19;129816;-40
2022/05/12 05:42:02;;;;;;;21.00;2.13;;;;;;;23.64;42.78;99170.72;7310962;19;130405;-37
2022/05/12 05:44:32;;;;;;;12.63;1.52;;;;;;;23.73;42.83;99181.09;7308842;19;129236;-40
2022/05/12 05:46:58;;;;;;;32.97;3.17;;;;;;;23.71;42.46;99201.44;7312616;19;130002;-38
2022/05/12 05:49:23;;;;;;;20.67;2.17;;;;;;;23.71;43.81;99188.31;7312017;19;132207;-37
2022/05/12 05:54:34;;;;;;;48.95;4.10;;;;;;;23.76;42.97;99201.78;7305671;19;130084;-38
2022/05/12 05:57:00;;;;;;;18.58;1.95;;;;;;;23.74;42.55;99203.72;7308542;19;130315;-39
2022/05/12 05:59:25;;;;;;;35.05;3.40;;;;;;;23.78;42.37;99207.69;7311374;19;129890;-38
2022/05/12 06:01:51;;;;;;;26.40;2.90;;;;;;;23.75;42.49;99210.59;7307151;19;159534;-40
2022/05/12 06:04:17;;;;;;;24.67;2.23;;;;;;;23.78;42.25;99219.97;7308584;19;136770;-39
2022/05/12 06:06:44;;;;;;;20.50;2.10;;;;;;;23.72;42.52;99225.84;7310112;19;128998;-39
2022/05/12 06:09:10;;;;;;;11.02;1.38;;;;;;;23.76;42.83;99233.28;7311471;19;130479;-39
2022/05/12 06:11:35;;;;;;;25.85;2.53;;;;;;;23.71;42.45;99235.56;7311033;19;129664;-38
2022/05/12 06:14:00;;;;;;;29.60;2.80;;;;;;;23.59;42.89;99231.59;7310517;19;154401;-37
2022/05/12 06:16:25;;;;;;;39.50;3.67;;;;;;;23.77;42.43;99253.28;7309760;19;154295;-38
2022/05/12 06:18:51;;;;;;;25.90;2.30;;;;;;;23.74;42.96;99264.09;7310244;19;159137;-39
2022/05/12 06:21:16;;;;;;;33.38;3.22;;;;;;;23.70;42.81;99265.41;7311847;19;129474;-38
2022/05/12 06:23:41;;;;;;;20.42;2.15;;;;;;;23.61;42.56;99255.88;7310140;19;129198;-39
2022/05/12 06:26:13;;;;;;;20.40;2.05;;;;;;;23.70;42.90;99270.66;7307763;19;152710;-39
2022/05/12 06:28:40;;;;;;;12.85;1.73;;;;;;;23.66;43.12;99264.09;7310665;19;130962;-39
2022/05/12 06:31:06;;;;;;;35.60;3.35;;;;;;;23.79;42.12;99279.38;7310526;19;130922;-39
2022/05/12 06:33:33;;;;;;;13.15;1.45;;;;;;;23.74;42.32;99290.34;7311393;19;129402;-39
2022/05/12 06:35:58;;;;;;;21.35;2.40;;;;;;;23.77;42.79;99281.31;7307938;19;129310;-39
2022/05/12 06:38:25;;;;;;;17.93;1.77;;;;;;;23.78;42.01;99278.56;7310040;19;130295;-38
2022/05/12 06:40:50;;;;;;;31.40;3.05;;;;;;;23.69;42.75;99284.75;7308917;19;129871;-38
2022/05/12 06:43:15;;;;;;;39.13;3.47;;;;;;;23.72;42.25;99305.44;7308139;19;155478;-37
2022/05/12 06:45:40;;;;;;;24.87;2.27;;;;;;;23.76;42.90;99317.28;7306922;19;128972;-39
2022/05/12 06:48:07;;;;;;;19.50;2.07;;;;;;;23.73;42.28;99307.09;7306112;19;158119;-38
2022/05/12 06:50:32;;;;;;;20.97;2.17;;;;;;;23.71;42.42;99314.31;7311268;19;130910;-39
2022/05/12 06:52:58;;;;;;;34.70;3.37;;;;;;;23.72;42.48;99321.19;7315947;19;140097;-38
2022/05/12 06:55:27;;;;;;;36.07;3.83;;;;;;;23.70;42.78;99320.50;7312942;19;154057;-42
2022/05/12 06:57:52;;;;;;;13.70;1.73;;;;;;;23.67;42.72;99312.97;7315975;19;129775;-37
2022/05/12 07:00:18;;;;;;;34.80;3.03;;;;;;;23.70;42.88;99331.00;7316070;19;150948;-37
2022/05/12 07:02:44;;;;;;;22.15;2.28;;;;;;;23.73;42.09;99327.25;7315303;19;129415;-36
2022/05/12 07:05:11;;;;;;;25.70;2.75;;;;;;;23.74;42.74;99348.09;7315169;19;129070;-38
2022/05/12 07:07:36;;;;;;;19.67;2.00;;;;;;;23.75;42.68;99344.47;7316142;19;129756;-38
2022/05/12 07:10:02;;;;;;;44.97;4.03;;;;;;;23.78;42.53;99352.06;7314656;19;129196;-39
2022/05/12 07:12:28;;;;;;;26.10;2.42;;;;;;;23.77;42.53;99360.06;7316786;19;129104;-38
2022/05/12 07:14:55;;;;;;;25.30;2.57;;;;;;;23.74;42.56;99363.84;7314496;19;154197;-38
2022/05/12 07:17:21;;;;;;;28.20;2.72;;;;;;;23.72;42.42;99357.94;7314824;19;130180;-38
2022/05/12 07:19:48;;;;;;;26.73;2.83;;;;;;;23.77;42.57;99366.16;7315837;19;129717;-38
2022/05/12 07:27:42;;;;;;;30.45;2.65;;;;;;;23.81;42.46;99371.91;7316043;19;129185;-37
2022/05/12 07:30:08;;;;;;;22.90;2.30;;;;;;;23.75;42.42;99377.81;7312761;19;159271;-37
2022/05/12 07:32:37;;;;;;;18.40;1.92;;;;;;;23.74;42.44;99382.22;7315768;19;129050;-37
2022/05/12 07:35:06;;;;;;;16.05;1.77;;;;;;;23.75;42.36;99389.13;7315280;19;128965;-37
2022/05/12 07:37:32;;;;;;;43.60;3.75;;;;;;;23.77;42.37;99381.91;7314970;19;129117;-37
2022/05/12 07:39:57;;;;;;;69.37;6.10;;;;;;;23.77;42.40;99395.03;7314312;19;130304;-37
2022/05/12 07:42:22;;;;;;;19.13;1.87;;;;;;;23.77;42.46;99402.91;7315076;19;154582;-37
2022/05/12 07:44:47;;;;;;;18.40;1.77;;;;;;;23.74;42.31;99408.47;7313893;19;133692;-37
2022/05/12 07:47:13;;;;;;;20.73;1.95;;;;;;;23.75;42.15;99415.38;7316108;19;141319;-37
2022/05/12 07:49:40;;;;;;;24.60;2.45;;;;;;;23.81;42.46;99424.41;7313848;19;130376;-37
2022/05/12 07:52:07;;;;;;;43.53;3.92;;;;;;;23.70;42.14;99401.88;7316525;19;129588;-37
2022/05/12 07:54:34;;;;;;;27.63;2.80;;;;;;;23.79;42.71;99424.59;7314121;19;128927;-37
2022/05/12 07:57:00;;;;;;;34.78;3.20;;;;;;;23.76;42.39;99430.16;7313987;19;130318;-37
2022/05/12 07:59:27;;;;;;;17.90;1.77;;;;;;;23.81;42.41;99441.00;7313044;19;131906;-37
2022/05/12 08:01:53;;;;;;;31.27;2.75;;;;;;;23.76;42.37;99443.28;7313148;19;129376;-41
2022/05/12 08:04:18;;;;;;;24.57;2.27;;;;;;;23.74;42.54;99439.97;7312598;19;128994;-40
2022/05/12 08:06:44;;;;;;;30.80;3.08;;;;;;;23.79;42.19;99442.13;7313452;19;134152;-40
2022/05/12 08:09:10;;;;;;;17.67;1.85;;;;;;;23.73;42.66;99424.38;7315046;19;130304;-39
2022/05/12 08:11:35;;;;;;;40.87;3.47;;;;;;;23.80;42.66;99444.59;7313870;19;129032;-40
2022/05/12 08:14:00;;;;;;;35.08;3.78;;;;;;;23.82;42.77;99458.38;7313488;19;134942;-41
2022/05/12 08:16:26;;;;;;;16.55;1.65;;;;;;;23.82;42.59;99453.13;7314307;19;129920;-38
2022/05/12 08:18:52;;;;;;;12.65;1.67;;;;;;;23.77;42.87;99454.59;7314595;19;129340;-39
2022/05/12 08:21:19;;;;;;;31.33;3.03;;;;;;;23.79;42.39;99469.22;7313587;19;130843;-40
2022/05/12 08:23:47;;;;;;;31.77;2.75;;;;;;;23.84;43.23;99469.56;7314005;19;129531;-40
2022/05/12 08:26:12;;;;;;;23.10;2.38;;;;;;;23.78;42.05;99479.88;7311590;19;130259;-37
2022/05/12 08:28:37;;;;;;;10.85;1.40;;;;;;;23.81;42.81;99483.00;7314961;19;130262;-40
2022/05/12 08:31:04;;;;;;;44.47;3.97;;;;;;;23.77;42.60;99481.66;7314191;19;130495;-39
2022/05/12 08:33:29;;;;;;;21.57;2.20;;;;;;;23.78;42.60;99496.47;7315122;19;129289;-41
2022/05/12 08:35:54;;;;;;;43.92;3.75;;;;;;;23.76;42.20;99485.28;7311469;19;129191;-41
2022/05/12 08:38:21;;;;;;;17.77;1.60;;;;;;;23.83;42.57;99503.84;7312815;19;158210;-38
2022/05/12 08:41:04;;;;;;;16.40;1.80;;;;;;;23.78;42.36;99508.75;7313183;19;128755;-40
2022/05/12 08:43:44;;;;;;;31.70;2.70;;;;;;;23.80;42.33;99504.19;7312146;19;129007;-38
2022/05/12 08:46:18;;;;;;;36.35;3.50;;;;;;;23.82;42.66;99517.94;7310236;19;130251;-38
2022/05/12 08:48:46;;;;;;;22.52;2.13;;;;;;;23.84;42.43;99529.94;7314445;19;129393;-37
2022/05/12 08:51:15;;;;;;;32.92;3.17;;;;;;;23.80;42.91;99522.56;7313999;19;128840;-40
2022/05/12 08:53:50;;;;;;;34.60;2.92;;;;;;;23.83;42.65;99541.41;7314705;19;129048;-37
2022/05/12 08:56:17;;;;;;;20.15;2.13;;;;;;;23.75;42.68;99524.81;7311142;19;130480;-38
2022/05/12 08:58:43;;;;;;;;;;;;;;;23.79;42.23;99547.97;7313474;19;129347;-38
2022/05/12 09:01:20;;;;;;;41.00;3.28;;;;;;;23.82;41.89;99537.16;7313918;19;129796;-38
2022/05/12 09:03:59;;;;;;;18.40;1.70;;;;;;;23.85;42.89;99531.59;7313855;19;129660;-37
2022/05/12 09:06:38;;;;;;;36.22;3.20;;;;;;;23.82;42.25;99542.41;7313525;19;130514;-37
2022/05/12 09:09:28;;;;;;;18.38;1.88;;;;;;;23.81;42.05;99532.91;7313697;19;129676;-38
2022/05/12 09:12:17;;;;;;;16.73;1.70;;;;;;;23.83;42.41;99546.66;7313323;19;129023;-41
2022/05/12 09:15:06;;;;;;;29.27;2.60;;;;;;;23.87;42.42;99547.19;7312304;19;129008;-38
2022/05/12 09:17:39;;;;;;;22.42;2.25;;;;;;;23.75;42.96;99532.69;7311103;19;129606;-39
2022/05/12 09:20:09;;;;;;;26.95;2.60;;;;;;;23.84;42.83;99550.97;7313806;19;129785;-37
2022/05/12 09:22:35;;;;;;;34.42;3.13;;;;;;;23.86;42.44;99554.25;7313620;19;129014;-38
2022/05/12 09:25:00;;;;;;;26.47;2.40;;;;;;;23.87;42.22;99553.28;7311514;19;128993;-37
2022/05/12 09:27:33;;;;;;;24.87;2.53;;;;;;;23.90;42.12;99560.81;7310331;19;159374;-37
2022/05/12 09:29:59;;;;;;;27.00;2.55;;;;;;;23.84;42.64;99550.97;7311417;19;130336;-39
2022/05/12 09:32:32;;;;;;;35.28;3.22;;;;;;;23.83;42.61;99564.25;7313150;19;128931;-39
2022/05/12 09:35:12;;;;;;;21.50;2.13;;;;;;;23.85;42.49;99568.34;7311932;19;129028;-36
2022/05/12 09:37:40;;;;;;;31.25;2.88;;;;;;;23.83;42.41;99569.50;7311420;19;129573;-38
2022/05/12 09:40:26;;;;;;;29.95;2.83;;;;;;;23.78;42.56;99572.59;7312552;19;130363;-37
2022/05/12 09:42:56;;;;;;;34.75;2.60;;;;;;;23.83;42.13;99578.16;7312926;19;129678;-37
2022/05/12 09:45:26;;;;;;;38.00;3.38;;;;;;;23.80;42.35;99581.13;7310900;19;131379;-42
2022/05/12 09:48:18;;;;;;;15.80;1.58;;;;;;;23.82;42.30;99573.91;7313673;19;130068;-38
2022/05/12 09:50:44;;;;;;;31.88;2.75;;;;;;;23.81;42.84;99571.44;7310328;19;129354;-39
2022/05/12 09:53:10;;;;;;;17.97;1.80;;;;;;;23.80;42.70;99575.88;7312995;19;129497;-40
2022/05/12 09:55:41;;;;;;;28.87;2.97;;;;;;;23.80;42.08;99575.88;7309480;19;128929;-39
2022/05/12 09:58:30;;;;;;;25.65;2.33;;;;;;;23.84;42.44;99576.38;7312478;19;129230;-39
2022/05/12 10:01:12;;;;;;;25.80;2.45;;;;;;;23.83;41.83;99570.28;7311516;19;130376;-40
2022/05/12 10:09:23;;;;;;;17.77;1.73;;;;;;;23.88;42.32;99575.09;7314542;19;129207;-38
2022/05/12 10:11:49;;;;;;;32.20;2.88;;;;;;;23.82;42.30;99568.66;7309321;19;129232;-37
2022/05/12 10:14:33;;;;;;;19.17;1.70;;;;;;;23.82;42.58;99571.28;7311639;19;129238;-38
2022/05/12 10:17:01;;;;;;;34.88;3.17;;;;;;;23.85;42.12;99573.59;7310081;19;128966;-38
2022/05/12 10:19:27;;;;;;;26.02;2.58;;;;;;;23.83;42.45;99575.53;7311097;19;129378;-39
2022/05/12 10:22:07;;;;;;;24.20;2.33;;;;;;;23.79;42.63;99574.22;7310820;19;129188;-37
2022/05/12 10:24:51;;;;;;;30.42;2.65;;;;;;;23.83;42.62;99566.88;7310885;19;129123;-38
2022/05/12 10:27:35;;;;;;;15.75;1.48;;;;;;;23.77;42.21;99564.84;7310914;19;129249;-40
2022/05/12 10:30:06;;;;;;;36.17;3.40;;;;;;;23.87;41.86;99576.06;7309173;19;129242;-41
2022/05/12 10:32:39;;;;;;;49.88;4.50;;;;;;;23.84;42.48;99573.75;7310009;19;129344;-37
2022/05/12 10:35:20;;;;;;;41.83;3.47;;;;;;;23.84;42.30;99574.59;7308918;19;155121;-38
2022/05/12 10:38:05;;;;;;;19.83;1.95;;;;;;;23.86;42.23;99579.69;7311481;19;128959;-38
2022/05/12 10:40:44;;;;;;;25.38;2.38;;;;;;;23.89;41.81;99571.50;7310418;19;130478;-41
2022/05/12 10:43:31;;;;;;;25.85;2.42;;;;;;;23.91;42.04;99570.38;7311012;19;129274;-38
2022/05/12 10:46:05;;;;;;;25.27;2.53;;;;;;;23.86;42.20;99564.75;7308241;19;128873;-36
2022/05/12 10:48:53;;;;;;;9.40;1.13;;;;;;;23.90;41.81;99555.56;7311338;19;128968;-37
2022/05/12 10:51:44;;;;;;;70.38;5.55;;;;;;;23.86;42.41;99570.00;7307054;19;158288;-38
2022/05/12 10:54:32;;;;;;;29.15;2.45;;;;;;;23.86;42.19;99570.00;7308543;19;158488;-41
2022/05/12 10:57:25;;;;;;;20.83;2.10;;;;;;;23.86;42.22;99559.50;7307987;19;129100;-40
2022/05/12 11:00:10;;;;;;;45.03;3.72;;;;;;;23.84;42.51;99571.13;7308971;19;129084;-37
2022/05/12 11:02:35;;;;;;;39.67;3.22;;;;;;;23.85;42.04;99565.72;7309282;19;130160;-40
2022/05/12 11:05:10;;;;;;;31.80;2.97;;;;;;;23.92;42.59;99569.38;7306961;19;158431;-37
2022/05/12 11:07:42;;;;;;;17.60;1.67;;;;;;;23.91;42.30;99577.41;7309558;19;128823;-41
2022/05/12 11:10:23;;;;;;;49.15;4.50;;;;;;;23.86;41.87;99579.69;7310034;19;129378;-38
2022/05/12 11:12:56;;;;;;;21.33;1.85;;;;;;;23.84;42.49;99571.97;7310172;19;129193;-37
2022/05/12 11:15:30;;;;;;;22.35;2.28;;;;;;;23.86;42.28;99569.19;7307579;19;131170;-36
2022/05/12 11:18:04;;;;;;;14.93;1.55;;;;;;;23.84;42.63;99577.22;7309701;19;129019;-41
2022/05/12 11:20:36;;;;;;;25.20;2.40;;;;;;;23.84;41.73;99561.47;7309363;19;130811;-36
2022/05/12 11:23:23;;;;;;;23.77;2.28;;;;;;;23.84;41.86;99574.59;7310090;19;130729;-38
2022/05/12 11:25:57;;;;;;;35.20;2.83;;;;;;;23.89;42.31;99567.06;7307362;19;129186;-38
2022/05/12 11:31:46;;;;;;;12.57;1.25;;;;;;;23.88;42.13;99570.66;7308923;19;129038;-38
2022/05/12 11:34:18;;;;;;;25.65;2.30;;;;;;;23.76;42.47;99564.03;7309987;19;129456;-36
2022/05/12 11:36:49;;;;;;;19.38;1.65;;;;;;;23.89;41.83;99580.19;7309048;19;129589;-37
2022/05/12 11:39:40;;;;;;;32.00;2.85;;;;;;;23.86;42.18;99564.75;7315346;19;128955;-39
2022/05/12 11:42:20;;;;;;;33.88;3.13;;;;;;;23.85;42.44;99568.34;7316288;19;129286;-37
2022/05/12 11:44:59;;;;;;;27.63;2.30;;;;;;;23.87;41.94;99579.53;7314799;19;129182;-38